createdAt,value
2017-03-21T00:00:19.897Z,10.1
2017-03-21T00:01:22.750Z,10.1
2017-03-21T00:02:25.097Z,10.1
2017-03-21T00:03:27.820Z,10.1
2017-03-21T00:04:30.975Z,10.1
2017-03-21T00:05:33.319Z,10.1
2017-03-21T00:06:36.039Z,10.1
2017-03-21T00:07:38.893Z,10.1
2017-03-21T00:08:41.109Z,10.1
2017-03-21T00:09:44.127Z,10.1
2017-03-21T00:10:46.522Z,10.1
2017-03-21T00:11:49.382Z,10.1
2017-03-21T00:12:52.101Z,10
2017-03-21T00:13:54.321Z,10
2017-03-21T00:14:57.445Z,10
2017-03-21T00:15:59.792Z,9.9
2017-03-21T00:17:02.512Z,9.9
2017-03-21T00:18:05.364Z,9.9
2017-03-21T00:19:08.081Z,9.9
2017-03-21T00:20:11.237Z,9.9
2017-03-21T00:22:15.994Z,9.9
2017-03-21T00:23:18.851Z,10
2017-03-21T00:24:21.202Z,10
2017-03-21T00:25:24.303Z,10
2017-03-21T00:26:26.651Z,10
2017-03-21T00:27:29.502Z,10
2017-03-21T00:28:31.854Z,10.1
2017-03-21T00:29:34.706Z,10.1
2017-03-21T00:30:37.862Z,10.1
2017-03-21T00:31:40.209Z,10.1
2017-03-21T00:32:42.560Z,10.1
2017-03-21T00:33:45.419Z,10.1
2017-03-21T00:34:48.270Z,10.1
2017-03-21T00:35:50.915Z,10.1
2017-03-21T00:36:53.273Z,10.1
2017-03-21T00:37:56.127Z,10.2
2017-03-21T00:38:58.850Z,10.2
2017-03-21T00:40:01.703Z,10.2
2017-03-21T00:41:04.306Z,10.2
2017-03-21T00:42:07.023Z,10.2
2017-03-21T00:43:09.372Z,10.2
2017-03-21T00:44:12.224Z,10.1
2017-03-21T00:45:14.948Z,10.2
2017-03-21T00:46:17.596Z,10.1
2017-03-21T00:47:19.943Z,10.1
2017-03-21T00:48:22.802Z,10.1
2017-03-21T00:49:25.525Z,10.1
2017-03-21T00:50:28.376Z,10.1
2017-03-21T00:51:31.025Z,10.1
2017-03-21T00:52:33.376Z,10.1
2017-03-21T00:53:36.239Z,10.1
2017-03-21T00:55:41.504Z,10.2
2017-03-21T00:56:44.660Z,10.2
2017-03-21T00:57:47.007Z,10.2
2017-03-21T00:58:49.359Z,10.2
2017-03-21T00:59:52.082Z,10.2
2017-03-21T01:00:54.933Z,10.2
2017-03-21T01:01:57.899Z,10.2
2017-03-21T01:03:00.250Z,10.2
2017-03-21T01:04:03.114Z,10.1
2017-03-21T01:05:05.461Z,10.1
2017-03-21T01:06:08.176Z,10.1
2017-03-21T01:07:11.332Z,10.1
2017-03-21T01:08:13.681Z,10.1
2017-03-21T01:09:16.417Z,10.1
2017-03-21T01:10:18.771Z,10
2017-03-21T01:11:21.490Z,10
2017-03-21T01:12:24.463Z,10
2017-03-21T01:13:26.817Z,10
2017-03-21T01:14:29.670Z,10
2017-03-21T01:15:32.532Z,10
2017-03-21T01:16:34.876Z,10
2017-03-21T01:17:38.029Z,9.9
2017-03-21T01:18:40.389Z,9.9
2017-03-21T01:19:43.107Z,9.9
2017-03-21T01:20:45.690Z,9.8
2017-03-21T01:21:48.540Z,9.8
2017-03-21T01:22:51.144Z,9.8
2017-03-21T01:23:53.500Z,9.8
2017-03-21T01:24:56.362Z,9.8
2017-03-21T01:25:59.214Z,9.8
2017-03-21T01:27:01.563Z,9.7
2017-03-21T01:28:04.778Z,9.6
2017-03-21T01:29:07.141Z,9.6
2017-03-21T01:30:09.487Z,9.6
2017-03-21T01:31:12.335Z,9.6
2017-03-21T01:32:15.743Z,9.6
2017-03-21T01:33:17.838Z,9.6
2017-03-21T01:34:20.053Z,9.6
2017-03-21T01:35:22.904Z,9.6
2017-03-21T01:36:25.754Z,9.6
2017-03-21T01:37:28.678Z,9.6
2017-03-21T01:38:31.147Z,9.6
2017-03-21T01:39:33.495Z,9.6
2017-03-21T01:40:36.345Z,9.6
2017-03-21T01:41:38.694Z,9.6
2017-03-21T01:42:41.146Z,9.6
2017-03-21T01:43:44.254Z,9.6
2017-03-21T01:44:47.109Z,9.6
2017-03-21T01:45:49.464Z,9.6
2017-03-21T01:46:52.313Z,9.6
2017-03-21T01:47:22.958Z,9.6
2017-03-21T01:47:55.114Z,9.6
2017-03-21T01:48:25.760Z,9.6
2017-03-21T01:48:57.716Z,9.6
2017-03-21T01:49:59.926Z,9.6
2017-03-21T01:51:02.645Z,9.6
2017-03-21T01:52:05.495Z,9.6
2017-03-21T01:53:08.355Z,9.6
2017-03-21T01:54:11.007Z,9.6
2017-03-21T01:55:13.354Z,9.6
2017-03-21T01:56:16.069Z,9.6
2017-03-21T01:57:18.919Z,9.5
2017-03-21T01:58:21.275Z,9.5
2017-03-21T01:59:24.436Z,9.5
2017-03-21T02:00:26.784Z,9.5
2017-03-21T02:01:29.635Z,9.4
2017-03-21T02:02:31.982Z,9.4
2017-03-21T02:03:34.844Z,9.4
2017-03-21T02:04:38.004Z,9.5
2017-03-21T02:05:40.221Z,9.5
2017-03-21T02:06:42.566Z,9.5
2017-03-21T02:07:45.351Z,9.5
2017-03-21T02:08:48.207Z,9.5
2017-03-21T02:09:50.867Z,9.5
2017-03-21T02:10:53.384Z,9.5
2017-03-21T02:12:02.459Z,9.5
2017-03-21T02:12:58.799Z,9.5
2017-03-21T02:14:01.152Z,9.5
2017-03-21T02:15:04.176Z,9.5
2017-03-21T02:16:06.534Z,9.5
2017-03-21T02:17:09.384Z,9.5
2017-03-21T02:18:11.729Z,9.5
2017-03-21T02:19:14.450Z,9.5
2017-03-21T02:20:17.605Z,9.5
2017-03-21T02:21:19.949Z,9.5
2017-03-21T02:22:22.665Z,9.5
2017-03-21T02:23:25.082Z,9.5
2017-03-21T02:24:27.941Z,9.5
2017-03-21T02:25:30.461Z,9.5
2017-03-21T02:26:33.176Z,9.5
2017-03-21T02:28:38.440Z,9.6
2017-03-21T02:29:41.286Z,9.6
2017-03-21T02:30:43.941Z,9.6
2017-03-21T02:31:46.286Z,9.6
2017-03-21T02:32:49.138Z,9.6
2017-03-21T02:33:51.996Z,9.6
2017-03-21T02:34:54.347Z,9.6
2017-03-21T02:35:57.495Z,9.6
2017-03-21T02:36:59.841Z,9.6
2017-03-21T02:38:02.188Z,9.6
2017-03-21T02:39:05.039Z,9.6
2017-03-21T02:40:07.888Z,9.6
2017-03-21T02:41:10.541Z,9.6
2017-03-21T02:42:12.893Z,9.6
2017-03-21T02:43:15.748Z,9.6
2017-03-21T02:44:18.471Z,9.6
2017-03-21T02:45:20.829Z,9.6
2017-03-21T02:47:26.891Z,9.6
2017-03-21T02:48:29.240Z,9.6
2017-03-21T02:49:31.589Z,9.6
2017-03-21T02:50:34.442Z,9.6
2017-03-21T02:51:36.804Z,9.7
2017-03-21T02:52:39.962Z,9.7
2017-03-21T02:53:42.316Z,9.7
2017-03-21T02:54:44.893Z,9.7
2017-03-21T02:55:47.745Z,9.7
2017-03-21T02:56:50.596Z,9.7
2017-03-21T02:57:53.252Z,9.6
2017-03-21T02:58:55.603Z,9.6
2017-03-21T02:59:58.182Z,9.6
2017-03-21T03:01:01.032Z,9.6
2017-03-21T03:02:03.741Z,9.6
2017-03-21T03:03:06.773Z,9.6
2017-03-21T03:04:08.863Z,9.6
2017-03-21T03:05:11.719Z,9.6
2017-03-21T03:06:14.571Z,9.6
2017-03-21T03:07:16.955Z,9.6
2017-03-21T03:09:22.467Z,9.7
2017-03-21T03:10:24.816Z,9.7
2017-03-21T03:11:27.852Z,9.7
2017-03-21T03:12:30.202Z,9.7
2017-03-21T03:13:33.058Z,9.7
2017-03-21T03:14:35.658Z,9.7
2017-03-21T03:15:38.375Z,9.7
2017-03-21T03:16:40.730Z,9.7
2017-03-21T03:17:43.453Z,9.7
2017-03-21T03:18:46.169Z,9.8
2017-03-21T03:19:49.319Z,9.8
2017-03-21T03:20:51.671Z,9.8
2017-03-21T03:21:54.029Z,9.8
2017-03-21T03:22:56.886Z,9.8
2017-03-21T03:23:59.745Z,9.8
2017-03-21T03:25:02.401Z,9.8
2017-03-21T03:26:04.746Z,9.8
2017-03-21T03:27:07.478Z,9.8
2017-03-21T03:28:10.330Z,9.8
2017-03-21T03:29:12.674Z,9.8
2017-03-21T03:31:18.551Z,9.8
2017-03-21T03:32:20.911Z,9.8
2017-03-21T03:33:23.777Z,9.8
2017-03-21T03:34:26.130Z,9.8
2017-03-21T03:35:28.980Z,9.8
2017-03-21T03:36:31.871Z,9.8
2017-03-21T03:37:34.233Z,9.8
2017-03-21T03:38:37.085Z,9.8
2017-03-21T03:39:39.429Z,9.8
2017-03-21T03:40:42.281Z,9.8
2017-03-21T03:41:45.376Z,9.8
2017-03-21T03:42:47.760Z,9.8
2017-03-21T03:43:50.113Z,9.8
2017-03-21T03:44:52.834Z,9.8
2017-03-21T03:45:55.415Z,9.8
2017-03-21T03:46:58.570Z,9.8
2017-03-21T03:48:00.924Z,9.8
2017-03-21T03:49:03.784Z,9.8
2017-03-21T03:50:06.130Z,9.8
2017-03-21T03:51:08.977Z,9.8
2017-03-21T03:52:11.492Z,9.8
2017-03-21T03:54:16.753Z,9.8
2017-03-21T03:55:19.608Z,9.8
2017-03-21T03:56:21.966Z,9.8
2017-03-21T03:57:24.985Z,9.8
2017-03-21T03:58:27.714Z,9.8
2017-03-21T03:59:30.069Z,9.8
2017-03-21T04:00:32.922Z,9.8
2017-03-21T04:01:35.270Z,9.8
2017-03-21T04:02:38.427Z,9.8
2017-03-21T04:03:40.780Z,9.8
2017-03-21T04:04:43.631Z,9.8
2017-03-21T04:05:45.981Z,9.8
2017-03-21T04:06:48.833Z,9.8
2017-03-21T04:07:51.996Z,9.8
2017-03-21T04:08:54.350Z,9.8
2017-03-21T04:09:56.701Z,9.8
2017-03-21T04:10:59.580Z,9.8
2017-03-21T04:12:01.931Z,9.8
2017-03-21T04:13:05.087Z,9.8
2017-03-21T04:14:07.439Z,9.8
2017-03-21T04:15:10.852Z,9.8
2017-03-21T04:17:15.611Z,9.8
2017-03-21T04:18:18.212Z,9.8
2017-03-21T04:19:20.563Z,9.8
2017-03-21T04:20:23.281Z,9.8
2017-03-21T04:21:26.133Z,9.8
2017-03-21T04:22:28.980Z,9.8
2017-03-21T04:23:31.631Z,9.8
2017-03-21T04:24:33.980Z,9.8
2017-03-21T04:25:36.834Z,9.8
2017-03-21T04:26:39.188Z,9.8
2017-03-21T04:27:42.041Z,9.8
2017-03-21T04:28:45.203Z,9.8
2017-03-21T04:29:47.560Z,9.8
2017-03-21T04:30:49.904Z,9.8
2017-03-21T04:31:52.755Z,9.8
2017-03-21T04:32:55.610Z,9.8
2017-03-21T04:33:58.264Z,9.8
2017-03-21T04:35:00.610Z,9.8
2017-03-21T04:37:05.932Z,9.8
2017-03-21T04:38:08.789Z,9.8
2017-03-21T04:39:11.307Z,9.8
2017-03-21T04:40:14.025Z,9.7
2017-03-21T04:41:16.871Z,9.6
2017-03-21T04:42:19.084Z,9.6
2017-03-21T04:43:21.942Z,9.6
2017-03-21T04:44:24.917Z,9.6
2017-03-21T04:45:27.272Z,9.6
2017-03-21T04:46:30.119Z,9.6
2017-03-21T04:47:32.466Z,9.6
2017-03-21T04:48:35.319Z,9.6
2017-03-21T04:49:38.476Z,9.6
2017-03-21T04:50:40.689Z,9.6
2017-03-21T04:51:43.541Z,9.5
2017-03-21T04:52:45.757Z,9.5
2017-03-21T04:53:48.620Z,9.5
2017-03-21T04:54:51.465Z,9.5
2017-03-21T04:55:53.821Z,9.5
2017-03-21T04:56:56.540Z,9.5
2017-03-21T04:57:59.393Z,9.5
2017-03-21T04:59:01.740Z,9.5
2017-03-21T05:00:04.841Z,9.5
2017-03-21T05:01:07.063Z,9.5
2017-03-21T05:03:12.824Z,9.5
2017-03-21T05:04:15.179Z,9.5
2017-03-21T05:05:18.335Z,9.5
2017-03-21T05:06:20.683Z,9.5
2017-03-21T05:07:23.032Z,9.5
2017-03-21T05:08:25.886Z,9.5
2017-03-21T05:09:28.606Z,9.5
2017-03-21T05:10:31.762Z,9.5
2017-03-21T05:11:34.108Z,9.5
2017-03-21T05:12:37.020Z,9.5
2017-03-21T05:13:39.375Z,9.5
2017-03-21T05:14:42.285Z,9.5
2017-03-21T05:15:44.817Z,9.5
2017-03-21T05:16:47.173Z,9.5
2017-03-21T05:17:50.027Z,9.5
2017-03-21T05:18:52.375Z,9.5
2017-03-21T05:19:55.093Z,9.5
2017-03-21T05:20:58.244Z,9.5
2017-03-21T05:22:00.590Z,9.5
2017-03-21T05:23:02.937Z,9.5
2017-03-21T05:24:05.656Z,9.5
2017-03-21T05:26:11.214Z,9.5
2017-03-21T05:27:13.566Z,9.5
2017-03-21T05:28:16.415Z,9.4
2017-03-21T05:29:19.201Z,9.4
2017-03-21T05:30:21.549Z,9.4
2017-03-21T05:32:27.613Z,9.4
2017-03-21T05:33:29.965Z,9.4
2017-03-21T05:34:32.313Z,9.4
2017-03-21T05:35:35.164Z,9.5
2017-03-21T05:37:40.787Z,9.5
2017-03-21T05:38:43.148Z,9.5
2017-03-21T05:39:45.497Z,9.5
2017-03-21T05:40:48.209Z,9.5
2017-03-21T05:41:50.789Z,9.5
2017-03-21T05:42:53.948Z,9.6
2017-03-21T05:43:56.292Z,9.6
2017-03-21T05:44:59.013Z,9.6
2017-03-21T05:46:01.868Z,9.6
2017-03-21T05:47:04.220Z,9.6
2017-03-21T05:48:07.377Z,9.7
2017-03-21T05:50:12.132Z,9.7
2017-03-21T05:51:14.850Z,9.7
2017-03-21T05:52:17.702Z,9.7
2017-03-21T05:53:20.357Z,9.7
2017-03-21T05:54:22.714Z,9.7
2017-03-21T05:55:25.438Z,9.7
2017-03-21T05:56:28.350Z,9.8
2017-03-21T05:57:31.070Z,9.8
2017-03-21T05:58:33.583Z,9.8
2017-03-21T05:59:36.436Z,9.8
2017-03-21T06:00:38.653Z,9.8
2017-03-21T06:01:41.501Z,9.9
2017-03-21T06:02:44.354Z,9.9
2017-03-21T06:03:46.826Z,10
2017-03-21T06:04:49.688Z,10
2017-03-21T06:05:52.039Z,10
2017-03-21T06:06:54.888Z,10
2017-03-21T06:07:57.609Z,10.1
2017-03-21T06:09:00.218Z,10.1
2017-03-21T06:10:03.075Z,10.3
2017-03-21T06:11:05.291Z,10.3
2017-03-21T06:12:08.048Z,10.4
2017-03-21T06:13:10.899Z,10.5
2017-03-21T06:14:13.555Z,10.5
2017-03-21T06:15:16.404Z,10.5
2017-03-21T06:16:18.754Z,10.6
2017-03-21T06:17:22.187Z,10.8
2017-03-21T06:18:24.406Z,11
2017-03-21T06:19:27.059Z,11.1
2017-03-21T06:20:29.415Z,11.1
2017-03-21T06:21:32.266Z,11.1
2017-03-21T06:22:34.617Z,11.1
2017-03-21T06:23:37.471Z,11.2
2017-03-21T06:24:40.575Z,11.3
2017-03-21T06:25:43.361Z,11.5
2017-03-21T06:26:46.280Z,11.5
2017-03-21T06:27:48.125Z,11.5
2017-03-21T06:28:50.980Z,11.5
2017-03-21T06:29:53.636Z,11.5
2017-03-21T06:30:55.864Z,11.6
2017-03-21T06:31:58.717Z,11.5
2017-03-21T06:33:01.304Z,11.5
2017-03-21T06:34:04.028Z,11.6
2017-03-21T06:35:07.186Z,11.6
2017-03-21T06:36:09.541Z,11.5
2017-03-21T06:37:12.404Z,11.5
2017-03-21T06:38:14.753Z,11.5
2017-03-21T06:39:17.609Z,11.5
2017-03-21T06:40:20.765Z,11.5
2017-03-21T06:41:23.122Z,11.5
2017-03-21T06:42:25.882Z,11.5
2017-03-21T06:43:28.464Z,11.6
2017-03-21T06:44:30.677Z,11.6
2017-03-21T06:45:33.830Z,11.5
2017-03-21T06:46:36.180Z,11.5
2017-03-21T06:47:38.935Z,11.5
2017-03-21T06:48:41.796Z,11.5
2017-03-21T06:49:44.527Z,11.5
2017-03-21T06:50:47.626Z,11.5
2017-03-21T06:51:49.971Z,11.5
2017-03-21T06:52:52.189Z,11.5
2017-03-21T06:53:55.041Z,11.5
2017-03-21T06:54:57.892Z,11.4
2017-03-21T06:56:00.997Z,11.4
2017-03-21T06:57:03.352Z,11.4
2017-03-21T06:58:05.565Z,11.4
2017-03-21T06:59:08.792Z,11.4
2017-03-21T07:00:11.002Z,11.4
2017-03-21T07:01:14.108Z,11.4
2017-03-21T07:03:19.368Z,11.5
2017-03-21T07:04:22.238Z,11.6
2017-03-21T07:05:24.589Z,11.6
2017-03-21T07:06:27.614Z,11.7
2017-03-21T07:07:30.001Z,11.8
2017-03-21T07:08:32.930Z,11.8
2017-03-21T07:09:35.649Z,11.9
2017-03-21T07:10:37.741Z,11.9
2017-03-21T07:11:40.899Z,11.9
2017-03-21T07:12:43.251Z,11.9
2017-03-21T07:13:45.972Z,11.9
2017-03-21T07:14:48.687Z,12
2017-03-21T07:15:51.542Z,11.9
2017-03-21T07:16:54.699Z,12
2017-03-21T07:17:56.780Z,12
2017-03-21T07:24:13.485Z,12
2017-03-21T07:25:15.835Z,12.1
2017-03-21T07:26:18.193Z,12.2
2017-03-21T07:27:21.050Z,12.3
2017-03-21T07:28:23.907Z,12.3
2017-03-21T07:30:29.471Z,12.4
2017-03-21T07:31:31.820Z,12.5
2017-03-21T07:32:34.677Z,12.3
2017-03-21T07:33:37.398Z,12.3
2017-03-21T07:35:42.924Z,12.3
2017-03-21T07:36:45.271Z,12.3
2017-03-21T07:37:48.122Z,12.3
2017-03-21T07:38:50.507Z,12.3
2017-03-21T07:39:53.371Z,12.3
2017-03-21T07:40:56.410Z,12.5
2017-03-21T07:41:59.190Z,12.6
2017-03-21T07:43:01.542Z,12.7
2017-03-21T07:45:06.803Z,12.9
2017-03-21T07:46:09.960Z,13
2017-03-21T07:47:12.310Z,12.8
2017-03-21T07:48:15.165Z,12.7
2017-03-21T07:49:17.521Z,12.7
2017-03-21T07:50:20.948Z,12.7
2017-03-21T07:51:23.100Z,12.6
2017-03-21T07:52:25.953Z,12.6
2017-03-21T07:54:31.211Z,12.5
2017-03-21T07:55:33.563Z,12.5
2017-03-21T07:56:36.549Z,12.5
2017-03-21T07:57:39.269Z,12.7
2017-03-21T07:58:42.134Z,13
2017-03-21T07:59:44.350Z,13.1
2017-03-21T08:00:47.200Z,13.2
2017-03-21T08:01:50.309Z,13.4
2017-03-21T08:02:52.523Z,13.3
2017-03-21T08:03:55.382Z,13.4
2017-03-21T08:04:58.161Z,13.4
2017-03-21T08:06:01.013Z,13.3
2017-03-21T08:08:06.256Z,13.3
2017-03-21T08:09:09.102Z,13.3
2017-03-21T08:10:11.454Z,13.3
2017-03-21T08:11:14.308Z,13.2
2017-03-21T08:12:17.164Z,13.1
2017-03-21T08:13:19.814Z,13.1
2017-03-21T08:14:22.665Z,13.2
2017-03-21T08:15:25.005Z,13.2
2017-03-21T08:16:27.858Z,13.3
2017-03-21T08:17:30.715Z,13.3
2017-03-21T08:18:33.370Z,13.3
2017-03-21T08:20:38.631Z,13.5
2017-03-21T08:21:42.040Z,13.3
2017-03-21T08:22:43.889Z,13.3
2017-03-21T08:23:47.002Z,13.3
2017-03-21T08:24:49.921Z,13.3
2017-03-21T08:25:52.272Z,13.4
2017-03-21T08:26:55.128Z,13.5
2017-03-21T08:27:57.210Z,13.3
2017-03-21T08:29:00.862Z,13.4
2017-03-21T08:30:03.081Z,13.4
2017-03-21T08:31:05.940Z,13.5
2017-03-21T08:32:08.161Z,13.6
2017-03-21T08:33:10.890Z,13.5
2017-03-21T08:34:14.042Z,13.5
2017-03-21T08:35:16.387Z,13.6
2017-03-21T08:36:19.240Z,13.8
2017-03-21T08:37:22.095Z,13.9
2017-03-21T08:38:24.947Z,14
2017-03-21T08:39:27.553Z,14.1
2017-03-21T08:40:30.414Z,14.2
2017-03-21T08:41:32.766Z,14.3
2017-03-21T08:42:35.617Z,14.2
2017-03-21T08:43:38.334Z,14.1
2017-03-21T08:44:41.353Z,14.1
2017-03-21T08:45:43.697Z,14
2017-03-21T08:46:46.411Z,14
2017-03-21T08:47:49.257Z,13.9
2017-03-21T08:48:51.665Z,14
2017-03-21T08:49:54.772Z,14
2017-03-21T08:50:57.122Z,14.1
2017-03-21T08:51:59.970Z,14.1
2017-03-21T08:53:02.752Z,14
2017-03-21T08:54:05.464Z,14
2017-03-21T08:55:09.178Z,14.1
2017-03-21T08:56:10.889Z,14.1
2017-03-21T08:57:13.740Z,14.1
2017-03-21T08:58:16.595Z,14.1
2017-03-21T08:59:18.944Z,14.1
2017-03-21T09:00:22.052Z,14.1
2017-03-21T09:01:24.458Z,14.1
2017-03-21T09:02:27.310Z,13.9
2017-03-21T09:03:30.162Z,13.8
2017-03-21T09:04:32.508Z,13.8
2017-03-21T09:05:35.524Z,13.9
2017-03-21T09:06:38.374Z,14
2017-03-21T09:07:40.717Z,14
2017-03-21T09:08:43.569Z,14
2017-03-21T09:09:46.422Z,14
2017-03-21T09:10:49.069Z,14
2017-03-21T09:11:51.918Z,13.9
2017-03-21T09:12:54.268Z,13.9
2017-03-21T09:13:57.126Z,14
2017-03-21T09:14:59.975Z,14
2017-03-21T09:16:02.861Z,13.7
2017-03-21T09:17:04.940Z,13.8
2017-03-21T09:18:07.792Z,13.8
2017-03-21T09:19:10.643Z,14
2017-03-21T09:20:13.360Z,14
2017-03-21T09:21:16.462Z,14
2017-03-21T09:22:18.810Z,13.8
2017-03-21T09:23:21.527Z,13.8
2017-03-21T09:24:24.387Z,13.6
2017-03-21T09:25:27.234Z,13.8
2017-03-21T09:26:29.834Z,14
2017-03-21T09:27:32.685Z,14
2017-03-21T09:28:34.900Z,14.3
2017-03-21T09:29:37.757Z,14.3
2017-03-21T09:30:40.608Z,14.3
2017-03-21T09:31:43.631Z,14.1
2017-03-21T09:32:46.350Z,14.3
2017-03-21T09:33:48.437Z,14.3
2017-03-21T09:34:51.796Z,14.6
2017-03-21T09:35:54.145Z,14.8
2017-03-21T09:36:57.456Z,15.1
2017-03-21T09:37:59.802Z,14.9
2017-03-21T09:39:02.650Z,14.9
2017-03-21T09:40:05.232Z,15.1
2017-03-21T09:41:07.813Z,15.2
2017-03-21T09:42:10.963Z,15.1
2017-03-21T09:43:13.318Z,15
2017-03-21T09:44:16.165Z,15
2017-03-21T09:45:18.753Z,14.8
2017-03-21T09:46:21.603Z,14.5
2017-03-21T09:47:24.708Z,14.4
2017-03-21T09:48:27.057Z,14.5
2017-03-21T09:49:29.906Z,14.5
2017-03-21T09:50:32.764Z,14.6
2017-03-21T09:51:35.046Z,14.8
2017-03-21T09:52:38.011Z,14.6
2017-03-21T09:54:43.275Z,14.6
2017-03-21T09:55:45.991Z,14.5
2017-03-21T09:56:48.838Z,14.4
2017-03-21T09:57:51.936Z,14.3
2017-03-21T09:58:54.284Z,14.3
2017-03-21T09:59:57.569Z,14.4
2017-03-21T10:00:59.924Z,14.5
2017-03-21T10:02:02.773Z,14.2
2017-03-21T10:03:05.296Z,14.1
2017-03-21T10:04:08.012Z,14.3
2017-03-21T10:05:10.730Z,14.1
2017-03-21T10:06:13.583Z,14
2017-03-21T10:07:16.434Z,13.7
2017-03-21T10:08:19.080Z,13.5
2017-03-21T10:09:21.427Z,13.3
2017-03-21T10:10:24.141Z,13.2
2017-03-21T10:11:26.995Z,13.2
2017-03-21T10:12:29.844Z,13.3
2017-03-21T10:14:35.353Z,13.1
2017-03-21T10:15:38.200Z,13
2017-03-21T10:16:40.548Z,13
2017-03-21T10:17:43.129Z,13.1
2017-03-21T10:18:45.978Z,13.1
2017-03-21T10:19:49.130Z,13.1
2017-03-21T10:20:51.477Z,13.1
2017-03-21T10:21:54.333Z,13.1
2017-03-21T10:22:57.185Z,12.9
2017-03-21T10:23:59.538Z,12.9
2017-03-21T10:25:02.642Z,13.1
2017-03-21T10:26:05.131Z,13.1
2017-03-21T10:27:07.716Z,13.1
2017-03-21T10:28:10.299Z,13.2
2017-03-21T10:29:13.151Z,13.3
2017-03-21T10:30:16.174Z,13.4
2017-03-21T10:31:18.525Z,13.5
2017-03-21T10:32:21.372Z,13.4
2017-03-21T10:33:24.262Z,13.5
2017-03-21T10:34:26.605Z,13.4
2017-03-21T10:35:29.710Z,13.3
2017-03-21T10:36:32.425Z,13.3
2017-03-21T10:37:34.636Z,13.4
2017-03-21T10:39:40.450Z,13.3
2017-03-21T10:40:43.421Z,13.1
2017-03-21T10:41:45.635Z,13.1
2017-03-21T10:42:48.484Z,12.9
2017-03-21T10:43:51.331Z,12.8
2017-03-21T10:44:54.184Z,12.7
2017-03-21T10:45:56.840Z,12.6
2017-03-21T10:46:59.185Z,12.5
2017-03-21T10:48:02.595Z,12.4
2017-03-21T10:49:04.941Z,12.3
2017-03-21T10:50:07.293Z,12.2
2017-03-21T10:51:10.483Z,12.1
2017-03-21T10:52:12.831Z,12
2017-03-21T10:53:15.545Z,12
2017-03-21T10:54:18.257Z,12
2017-03-21T10:55:21.108Z,12
2017-03-21T10:56:24.126Z,11.8
2017-03-21T10:57:26.473Z,11.7
2017-03-21T10:59:32.107Z,11.8
2017-03-21T11:00:34.455Z,11.9
2017-03-21T11:01:37.606Z,11.8
2017-03-21T11:02:40.575Z,11.6
2017-03-21T11:03:42.425Z,11.6
2017-03-21T11:04:45.291Z,11.6
2017-03-21T11:05:48.001Z,11.7
2017-03-21T11:06:51.710Z,11.7
2017-03-21T11:07:53.426Z,11.7
2017-03-21T11:08:56.279Z,11.7
2017-03-21T11:09:58.629Z,11.6
2017-03-21T11:11:01.482Z,11.6
2017-03-21T11:12:04.586Z,11.7
2017-03-21T11:13:06.936Z,11.7
2017-03-21T11:14:09.783Z,11.9
2017-03-21T11:15:12.134Z,12
2017-03-21T11:16:14.851Z,12.2
2017-03-21T11:17:17.819Z,12.3
2017-03-21T11:18:20.675Z,12.1
2017-03-21T11:19:23.020Z,11.7
2017-03-21T11:20:25.871Z,11.5
2017-03-21T11:21:28.585Z,11.3
2017-03-21T11:22:31.738Z,11.1
2017-03-21T11:23:33.954Z,10.7
2017-03-21T11:24:36.533Z,10.6
2017-03-21T11:25:39.253Z,10.1
2017-03-21T11:27:44.764Z,10.3
2017-03-21T11:28:47.616Z,10.4
2017-03-21T11:29:49.963Z,10.4
2017-03-21T11:30:52.817Z,10.3
2017-03-21T11:31:55.669Z,10.3
2017-03-21T11:32:58.685Z,10.5
2017-03-21T11:34:00.904Z,10.3
2017-03-21T11:35:03.617Z,10.4
2017-03-21T11:36:06.204Z,10.3
2017-03-21T11:37:09.059Z,10.3
2017-03-21T11:38:11.659Z,9.9
2017-03-21T11:39:14.508Z,9.4
2017-03-21T11:40:17.092Z,9.6
2017-03-21T11:41:19.941Z,9.5
2017-03-21T11:42:22.287Z,9.5
2017-03-21T11:43:25.445Z,9.6
2017-03-21T11:44:27.792Z,9.6
2017-03-21T11:45:30.642Z,9.7
2017-03-21T11:46:32.983Z,9.8
2017-03-21T11:47:35.831Z,10
2017-03-21T11:48:38.809Z,9.9
2017-03-21T11:49:41.163Z,10.1
2017-03-21T11:50:44.016Z,10
2017-03-21T11:51:46.386Z,10.1
2017-03-21T11:52:49.130Z,10.3
2017-03-21T11:53:52.242Z,10.3
2017-03-21T11:54:54.588Z,10.3
2017-03-21T11:55:56.945Z,10.4
2017-03-21T11:56:59.669Z,10.5
2017-03-21T11:58:02.391Z,10.6
2017-03-21T11:59:06.073Z,10.6
2017-03-21T12:00:07.785Z,10.5
2017-03-21T12:01:10.642Z,10.4
2017-03-21T12:02:13.497Z,10.4
2017-03-21T12:03:15.845Z,10.1
2017-03-21T12:04:19.000Z,9.8
2017-03-21T12:05:21.348Z,10
2017-03-21T12:06:24.199Z,10.1
2017-03-21T12:07:26.412Z,10.1
2017-03-21T12:08:29.129Z,10.2
2017-03-21T12:09:32.284Z,10.1
2017-03-21T12:10:34.632Z,10.2
2017-03-21T12:11:37.347Z,10.4
2017-03-21T12:12:40.203Z,10.5
2017-03-21T12:13:42.555Z,10.7
2017-03-21T12:14:45.529Z,10.9
2017-03-21T12:15:47.882Z,10.6
2017-03-21T12:16:50.729Z,10.6
2017-03-21T12:17:53.578Z,10.6
2017-03-21T12:18:55.933Z,10.7
2017-03-21T12:19:59.091Z,10.5
2017-03-21T12:21:01.234Z,10.3
2017-03-21T12:22:03.952Z,10.5
2017-03-21T12:23:06.804Z,10.5
2017-03-21T12:24:09.662Z,10.6
2017-03-21T12:25:12.313Z,10.7
2017-03-21T12:26:14.660Z,10.3
2017-03-21T12:27:17.380Z,10.5
2017-03-21T12:28:20.230Z,10.5
2017-03-21T12:29:23.081Z,10.3
2017-03-21T12:30:25.460Z,10.3
2017-03-21T12:31:28.043Z,10.3
2017-03-21T12:32:30.892Z,10.4
2017-03-21T12:33:33.746Z,10.3
2017-03-21T12:34:36.129Z,10.5
2017-03-21T12:35:39.564Z,10.2
2017-03-21T12:37:44.049Z,10.1
2017-03-21T12:38:46.698Z,10
2017-03-21T12:39:49.553Z,10
2017-03-21T12:40:52.711Z,10
2017-03-21T12:41:55.059Z,10.1
2017-03-21T12:42:57.406Z,10.2
2017-03-21T12:44:00.128Z,10.2
2017-03-21T12:45:02.974Z,10.3
2017-03-21T12:46:05.853Z,10.1
2017-03-21T12:47:08.202Z,10.3
2017-03-21T12:48:11.052Z,10.1
2017-03-21T12:49:13.908Z,10.3
2017-03-21T12:50:16.123Z,10.3
2017-03-21T12:51:19.279Z,10.3
2017-03-21T12:52:21.627Z,10.4
2017-03-21T12:53:24.351Z,10.4
2017-03-21T12:54:27.087Z,10.5
2017-03-21T12:55:29.938Z,10.1
2017-03-21T12:56:32.586Z,10.3
2017-03-21T12:57:34.937Z,10.5
2017-03-21T12:59:40.194Z,10.5
2017-03-21T13:00:43.045Z,10.5
2017-03-21T13:01:46.145Z,10.5
2017-03-21T13:02:48.492Z,10.5
2017-03-21T13:03:51.340Z,10.5
2017-03-21T13:04:53.732Z,10.5
2017-03-21T13:05:56.582Z,10.7
2017-03-21T13:06:59.288Z,10.8
2017-03-21T13:08:01.638Z,11
2017-03-21T13:09:04.218Z,11
2017-03-21T13:10:07.072Z,10.6
2017-03-21T13:11:09.924Z,10.5
2017-03-21T13:12:12.550Z,10.7
2017-03-21T13:13:15.399Z,10.8
2017-03-21T13:14:17.481Z,10.8
2017-03-21T13:15:20.337Z,10.8
2017-03-21T13:16:23.191Z,10.4
2017-03-21T13:17:26.212Z,10.5
2017-03-21T13:18:28.430Z,10.6
2017-03-21T13:19:31.272Z,10.7
2017-03-21T13:21:36.526Z,10.7
2017-03-21T13:22:39.678Z,10.5
2017-03-21T13:23:42.031Z,10.5
2017-03-21T13:24:44.378Z,10.4
2017-03-21T13:25:47.233Z,10.6
2017-03-21T13:26:49.948Z,10.6
2017-03-21T13:27:53.047Z,10.6
2017-03-21T13:28:55.401Z,10.5
2017-03-21T13:29:57.756Z,10.6
2017-03-21T13:31:00.608Z,10.5
2017-03-21T13:32:03.472Z,10.4
2017-03-21T13:33:06.123Z,10.5
2017-03-21T13:34:08.470Z,10.7
2017-03-21T13:35:11.319Z,10.8
2017-03-21T13:36:14.174Z,10.9
2017-03-21T13:37:16.551Z,10.8
2017-03-21T13:38:19.656Z,10.8
2017-03-21T13:39:22.003Z,10.8
2017-03-21T13:40:24.719Z,10.7
2017-03-21T13:41:27.434Z,10.6
2017-03-21T13:43:32.945Z,10.3
2017-03-21T13:44:35.157Z,10.4
2017-03-21T13:45:38.006Z,10.5
2017-03-21T13:46:40.588Z,10.5
2017-03-21T13:47:43.361Z,10.2
2017-03-21T13:48:46.511Z,10.5
2017-03-21T13:49:48.722Z,10.5
2017-03-21T13:50:51.576Z,10.5
2017-03-21T13:51:54.290Z,10.7
2017-03-21T13:53:59.850Z,11
2017-03-21T13:55:02.193Z,10.9
2017-03-21T13:56:04.926Z,11
2017-03-21T13:57:07.283Z,11
2017-03-21T13:58:10.134Z,11.1
2017-03-21T13:59:13.097Z,11
2017-03-21T14:00:15.474Z,11
2017-03-21T14:01:18.328Z,11.1
2017-03-21T14:02:20.676Z,11.3
2017-03-21T14:03:23.527Z,11.3
2017-03-21T14:04:26.213Z,11.4
2017-03-21T14:05:28.823Z,11.3
2017-03-21T14:07:34.078Z,11
2017-03-21T14:08:36.795Z,11.2
2017-03-21T14:09:39.953Z,11.4
2017-03-21T14:10:42.859Z,11.5
2017-03-21T14:11:45.075Z,11.5
2017-03-21T14:12:47.424Z,11.4
2017-03-21T14:13:50.277Z,11.5
2017-03-21T14:14:53.386Z,11.4
2017-03-21T14:15:55.617Z,11.5
2017-03-21T14:16:58.341Z,11.2
2017-03-21T14:18:00.690Z,11.2
2017-03-21T14:19:03.411Z,11.4
2017-03-21T14:20:06.430Z,11.5
2017-03-21T14:22:11.556Z,11.4
2017-03-21T14:23:14.279Z,11.5
2017-03-21T14:24:17.133Z,11.5
2017-03-21T14:25:19.741Z,11.5
2017-03-21T14:26:22.086Z,11.5
2017-03-21T14:27:24.803Z,11.6
2017-03-21T14:28:27.521Z,11.6
2017-03-21T14:29:30.269Z,11.2
2017-03-21T14:30:33.392Z,10.8
2017-03-21T14:31:35.606Z,11
2017-03-21T14:32:38.323Z,11.2
2017-03-21T14:33:41.173Z,11.3
2017-03-21T14:34:43.519Z,11.3
2017-03-21T14:35:46.674Z,11.5
2017-03-21T14:36:49.016Z,11.6
2017-03-21T14:37:51.597Z,11.5
2017-03-21T14:38:54.447Z,11.6
2017-03-21T14:39:57.295Z,11.6
2017-03-21T14:40:27.805Z,11.6
2017-03-21T14:41:00.320Z,11.6
2017-03-21T14:43:05.073Z,11.6
2017-03-21T14:44:07.929Z,11.5
2017-03-21T14:45:10.787Z,11.5
2017-03-21T14:46:13.492Z,11.5